createdAt,value
2017-09-27T00:00:29.714Z,27.83
2017-09-27T00:02:58.005Z,24.43
2017-09-27T00:05:26.290Z,27.77
2017-09-27T00:07:54.590Z,30.23
2017-09-27T00:10:22.864Z,26.53
2017-09-27T00:12:51.100Z,24.30
2017-09-27T00:15:19.341Z,26.47
2017-09-27T00:17:48.366Z,25.80
2017-09-27T00:20:16.632Z,26.67
2017-09-27T00:22:44.895Z,23.40
2017-09-27T00:25:13.189Z,24.97
2017-09-27T00:27:41.425Z,25.07
2017-09-27T00:30:10.455Z,26.33
2017-09-27T00:32:39.502Z,26.80
2017-09-27T00:35:07.742Z,25.60
2017-09-27T00:37:36.018Z,25.47
2017-09-27T00:40:05.076Z,26.80
2017-09-27T00:42:34.094Z,25.90
2017-09-27T00:45:02.791Z,22.53
2017-09-27T00:47:31.036Z,23.27
2017-09-27T00:49:59.309Z,22.27
2017-09-27T00:52:28.344Z,23.80
2017-09-27T00:54:56.622Z,23.20
2017-09-27T00:57:24.868Z,23.50
2017-09-27T00:59:53.154Z,24.03
2017-09-27T01:02:21.432Z,23.77
2017-09-27T01:04:49.915Z,23.43
2017-09-27T01:07:18.901Z,24.40
2017-09-27T01:09:47.942Z,25.53
2017-09-27T01:12:16.199Z,23.50
2017-09-27T01:14:44.468Z,23.80
2017-09-27T01:17:12.756Z,25.60
2017-09-27T01:19:42.578Z,26.40
2017-09-27T01:22:10.882Z,25.40
2017-09-27T01:24:39.164Z,25.47
2017-09-27T01:27:08.462Z,26.10
2017-09-27T01:29:36.714Z,27.43
2017-09-27T01:32:05.128Z,27.27
2017-09-27T01:34:34.154Z,27.43
2017-09-27T01:37:02.439Z,27.33
2017-09-27T01:39:30.701Z,29.43
2017-09-27T01:41:58.984Z,25.30
2017-09-27T01:44:27.254Z,28.20
2017-09-27T01:46:56.158Z,27.33
2017-09-27T01:49:24.455Z,26.47
2017-09-27T01:51:53.445Z,29.20
2017-09-27T01:54:21.735Z,28.20
2017-09-27T01:56:50.000Z,27.40
2017-09-27T01:59:18.290Z,26.13
2017-09-27T02:01:46.525Z,28.70
2017-09-27T02:04:15.658Z,27.60
2017-09-27T02:06:43.957Z,29.23
2017-09-27T02:09:12.217Z,26.73
2017-09-27T02:11:41.004Z,25.00
2017-09-27T02:14:09.233Z,27.87
2017-09-27T02:16:38.676Z,28.67
2017-09-27T02:19:06.975Z,30.23
2017-09-27T02:21:35.191Z,27.40
2017-09-27T02:24:04.220Z,25.90
2017-09-27T02:26:32.466Z,28.47
2017-09-27T02:29:00.737Z,26.30
2017-09-27T02:31:28.982Z,28.30
2017-09-27T02:33:57.599Z,29.70
2017-09-27T02:36:26.646Z,29.60
2017-09-27T02:38:54.881Z,27.73
2017-09-27T02:41:24.327Z,26.37
2017-09-27T02:43:53.161Z,26.27
2017-09-27T02:46:21.382Z,26.60
2017-09-27T02:48:50.053Z,24.83
2017-09-27T02:51:19.019Z,25.87
2017-09-27T02:53:47.250Z,25.70
2017-09-27T02:56:16.397Z,24.97
2017-09-27T02:58:44.656Z,25.50
2017-09-27T03:01:13.020Z,25.70
2017-09-27T03:03:41.264Z,26.17
2017-09-27T03:06:09.915Z,25.90
2017-09-27T03:08:38.473Z,24.90
2017-09-27T03:11:07.087Z,27.83
2017-09-27T03:13:36.829Z,27.77
2017-09-27T03:16:05.106Z,27.03
2017-09-27T03:18:33.458Z,29.87
2017-09-27T03:21:01.674Z,28.70
2017-09-27T03:23:29.964Z,27.53
2017-09-27T03:25:58.237Z,29.43
2017-09-27T03:28:26.503Z,28.10
2017-09-27T03:30:54.742Z,25.87
2017-09-27T03:33:23.784Z,26.63
2017-09-27T03:35:52.037Z,26.60
2017-09-27T03:38:21.098Z,27.70
2017-09-27T03:40:49.359Z,27.70
2017-09-27T03:43:17.625Z,26.63
2017-09-27T03:45:45.862Z,27.90
2017-09-27T03:48:14.158Z,28.53
2017-09-27T03:50:42.407Z,28.20
2017-09-27T03:53:11.435Z,28.20
2017-09-27T03:55:39.710Z,28.87
2017-09-27T03:58:07.958Z,29.93
2017-09-27T04:00:36.986Z,29.03
2017-09-27T04:03:05.250Z,29.47
2017-09-27T04:05:33.559Z,28.60
2017-09-27T04:08:01.858Z,27.57
2017-09-27T04:10:30.146Z,26.60
2017-09-27T04:12:58.375Z,28.37
2017-09-27T04:15:26.647Z,28.00
2017-09-27T04:17:54.906Z,29.50
2017-09-27T04:20:23.183Z,30.10
2017-09-27T04:22:51.445Z,28.40
2017-09-27T04:25:19.742Z,30.50
2017-09-27T04:27:47.997Z,29.10
2017-09-27T04:30:17.010Z,29.47
2017-09-27T04:32:45.275Z,28.97
2017-09-27T04:35:13.641Z,29.40
2017-09-27T04:37:41.872Z,28.17
2017-09-27T04:40:10.155Z,27.37
2017-09-27T04:42:38.568Z,25.93
2017-09-27T04:45:06.769Z,26.20
2017-09-27T04:47:35.075Z,27.47
2017-09-27T04:50:03.329Z,26.17
2017-09-27T04:52:31.611Z,26.77
2017-09-27T04:55:00.352Z,28.30
2017-09-27T04:57:28.766Z,25.53
2017-09-27T04:59:57.005Z,26.27
2017-09-27T05:02:26.070Z,24.90
2017-09-27T05:04:54.309Z,27.43
2017-09-27T05:07:22.570Z,25.17
2017-09-27T05:09:51.621Z,26.80
2017-09-27T05:12:19.858Z,26.07
2017-09-27T05:14:48.893Z,28.23
2017-09-27T05:17:17.144Z,28.43
2017-09-27T05:19:45.417Z,26.83
2017-09-27T05:22:13.677Z,27.93
2017-09-27T05:24:42.681Z,28.83
2017-09-27T05:27:11.756Z,28.00
2017-09-27T05:29:40.034Z,29.53
2017-09-27T05:32:08.408Z,27.47
2017-09-27T05:34:38.178Z,29.70
2017-09-27T05:37:06.423Z,28.57
2017-09-27T05:39:34.695Z,29.33
2017-09-27T05:42:02.937Z,27.83
2017-09-27T05:44:31.200Z,29.77
2017-09-27T05:46:59.461Z,27.70
2017-09-27T05:49:27.743Z,27.53
2017-09-27T05:51:55.996Z,28.40
2017-09-27T05:54:24.298Z,27.40
2017-09-27T05:56:52.625Z,28.37
2017-09-27T05:59:20.869Z,27.27
2017-09-27T06:01:49.334Z,27.20
2017-09-27T06:04:17.579Z,30.20
2017-09-27T06:06:46.609Z,27.60
2017-09-27T06:09:14.882Z,27.97
2017-09-27T06:11:43.129Z,28.50
2017-09-27T06:14:11.402Z,27.90
2017-09-27T06:16:41.378Z,33.00
2017-09-27T06:19:09.633Z,28.40
2017-09-27T06:21:37.913Z,27.53
2017-09-27T06:24:06.233Z,27.17
2017-09-27T06:26:35.985Z,27.93
2017-09-27T06:29:04.259Z,27.30
2017-09-27T06:31:32.537Z,27.93
2017-09-27T06:34:00.813Z,28.47
2017-09-27T06:36:29.502Z,29.17
2017-09-27T06:38:57.794Z,25.37
2017-09-27T06:41:26.111Z,27.07
2017-09-27T06:43:54.382Z,25.83
2017-09-27T06:46:22.610Z,25.73
2017-09-27T06:48:51.698Z,24.30
2017-09-27T06:51:19.970Z,24.93
2017-09-27T06:53:49.262Z,25.30
2017-09-27T06:56:18.322Z,25.37
2017-09-27T06:58:46.571Z,23.27
2017-09-27T07:01:15.209Z,22.90
2017-09-27T07:03:44.814Z,27.10
2017-09-27T07:06:14.585Z,24.37
2017-09-27T07:08:43.043Z,25.50
2017-09-27T07:11:12.056Z,23.40
2017-09-27T07:13:40.325Z,24.63
2017-09-27T07:16:08.598Z,22.73
2017-09-27T07:18:36.880Z,24.23
2017-09-27T07:21:05.124Z,22.63
2017-09-27T07:23:33.382Z,23.90
2017-09-27T07:26:01.642Z,24.13
2017-09-27T07:28:29.905Z,22.27
2017-09-27T07:30:58.197Z,24.43
2017-09-27T07:33:26.415Z,23.93
2017-09-27T07:35:55.494Z,24.30
2017-09-27T07:38:23.780Z,21.63
2017-09-27T07:40:52.093Z,23.00
2017-09-27T07:43:20.374Z,24.50
2017-09-27T07:48:22.181Z,22.87
2017-09-27T07:50:50.457Z,22.10
2017-09-27T07:53:18.714Z,23.20
2017-09-27T07:55:47.576Z,22.77
2017-09-27T07:58:16.599Z,24.10
2017-09-27T08:00:44.855Z,23.70
2017-09-27T08:03:13.138Z,24.43
2017-09-27T08:05:41.383Z,23.73
2017-09-27T08:08:09.679Z,23.10
2017-09-27T08:10:38.684Z,21.50
2017-09-27T08:13:06.944Z,21.57
2017-09-27T08:15:35.983Z,22.80
2017-09-27T08:18:04.294Z,23.43
2017-09-27T08:20:32.589Z,21.87
2017-09-27T08:23:01.611Z,20.67
2017-09-27T08:25:29.854Z,21.20
2017-09-27T08:27:58.879Z,22.47
2017-09-27T08:30:27.129Z,20.43
2017-09-27T08:32:56.170Z,21.23
2017-09-27T08:35:24.425Z,22.30
2017-09-27T08:37:52.682Z,20.77
2017-09-27T08:40:21.720Z,27.70
2017-09-27T08:42:50.803Z,22.00
2017-09-27T08:45:20.503Z,20.43
2017-09-27T08:47:48.752Z,21.27
2017-09-27T08:50:17.349Z,21.40
2017-09-27T08:52:45.564Z,21.40
2017-09-27T08:55:13.822Z,21.33
2017-09-27T08:57:42.097Z,20.40
2017-09-27T09:00:10.389Z,21.97
2017-09-27T09:02:38.643Z,20.60
2017-09-27T09:05:07.661Z,18.07
2017-09-27T09:07:35.944Z,19.60
2017-09-27T09:10:04.257Z,20.33
2017-09-27T09:12:32.524Z,18.63
2017-09-27T09:15:01.455Z,17.90
2017-09-27T09:17:29.710Z,19.43
2017-09-27T09:19:57.930Z,18.83
2017-09-27T09:22:27.090Z,19.80
2017-09-27T09:24:55.327Z,20.00
2017-09-27T09:27:23.594Z,20.90
2017-09-27T09:29:51.864Z,20.70
2017-09-27T09:32:20.123Z,19.97
2017-09-27T09:34:48.427Z,20.40
2017-09-27T09:37:18.232Z,18.10
2017-09-27T09:39:46.492Z,20.03
2017-09-27T09:42:15.525Z,20.57
2017-09-27T09:44:43.798Z,19.83
2017-09-27T09:47:12.068Z,20.30
2017-09-27T09:49:41.582Z,20.60
2017-09-27T09:52:09.819Z,19.63
2017-09-27T09:54:40.154Z,19.00
2017-09-27T09:57:08.409Z,19.57
2017-09-27T09:59:37.437Z,17.47
2017-09-27T10:02:05.690Z,18.97
2017-09-27T10:04:35.464Z,17.90
2017-09-27T10:07:03.717Z,17.83
2017-09-27T10:09:32.006Z,17.43
2017-09-27T10:12:00.272Z,16.93
2017-09-27T10:14:28.518Z,17.50
2017-09-27T10:16:57.527Z,17.47
2017-09-27T10:19:25.777Z,16.63
2017-09-27T10:21:54.805Z,18.23
2017-09-27T10:24:23.071Z,17.90
2017-09-27T10:26:51.345Z,18.27
2017-09-27T10:29:19.607Z,20.03
2017-09-27T10:31:48.702Z,17.70
2017-09-27T10:34:17.753Z,17.20
2017-09-27T10:36:45.995Z,17.53
2017-09-27T10:39:14.394Z,17.90
2017-09-27T10:41:43.555Z,18.87
2017-09-27T10:44:12.576Z,16.80
2017-09-27T10:46:40.835Z,18.80
2017-09-27T10:49:09.860Z,18.90
2017-09-27T10:51:38.133Z,17.60
2017-09-27T10:54:06.402Z,18.00
2017-09-27T10:56:34.644Z,16.20
2017-09-27T10:59:04.268Z,16.90
2017-09-27T11:01:32.487Z,19.03
2017-09-27T11:04:00.839Z,14.47
2017-09-27T11:06:29.200Z,17.20
2017-09-27T11:08:58.416Z,17.10
2017-09-27T11:11:26.881Z,18.00
2017-09-27T11:13:55.268Z,16.90
2017-09-27T11:16:23.668Z,17.50
2017-09-27T11:18:52.095Z,15.30
2017-09-27T11:21:20.472Z,15.20
2017-09-27T11:23:48.803Z,15.70
2017-09-27T11:26:17.085Z,15.63
2017-09-27T11:28:45.346Z,14.60
2017-09-27T11:31:13.604Z,14.53
2017-09-27T11:33:42.620Z,14.33
2017-09-27T11:36:10.908Z,15.57
2017-09-27T11:38:39.158Z,15.27
2017-09-27T11:41:08.223Z,14.63
2017-09-27T11:43:36.446Z,14.80
2017-09-27T11:46:04.747Z,14.27
2017-09-27T11:48:33.007Z,14.63
2017-09-27T11:51:02.025Z,14.13
2017-09-27T11:53:30.572Z,14.33
2017-09-27T11:55:59.742Z,14.13
2017-09-27T11:58:28.280Z,14.80
2017-09-27T12:00:56.883Z,14.63
2017-09-27T12:03:25.420Z,15.50
2017-09-27T12:05:54.099Z,14.70
2017-09-27T12:08:22.571Z,13.83
2017-09-27T12:10:51.901Z,14.17
2017-09-27T12:13:21.468Z,14.20
2017-09-27T12:15:49.728Z,12.93
2017-09-27T12:18:18.784Z,13.23
2017-09-27T12:20:47.834Z,13.67
2017-09-27T12:23:16.102Z,12.60
2017-09-27T12:25:45.976Z,12.30
2017-09-27T12:28:15.014Z,13.13
2017-09-27T12:30:44.204Z,12.50
2017-09-27T12:33:12.531Z,13.00
2017-09-27T12:35:40.861Z,14.43
2017-09-27T12:38:09.131Z,12.83
2017-09-27T12:40:47.390Z,11.60
2017-09-27T12:43:16.430Z,11.83
2017-09-27T12:45:44.727Z,13.30
2017-09-27T12:48:13.005Z,12.57
2017-09-27T12:50:41.316Z,12.60
2017-09-27T12:53:10.360Z,12.00
2017-09-27T12:55:39.523Z,12.93
2017-09-27T12:58:09.376Z,12.83
2017-09-27T13:00:38.116Z,13.60
2017-09-27T13:03:07.355Z,12.43
2017-09-27T13:05:36.041Z,12.70
2017-09-27T13:08:05.613Z,12.93
2017-09-27T13:10:34.634Z,15.20
2017-09-27T13:13:03.342Z,14.47
2017-09-27T13:15:31.840Z,14.50
2017-09-27T13:18:00.143Z,13.90
2017-09-27T13:20:28.420Z,14.50
2017-09-27T13:22:56.688Z,14.83
2017-09-27T13:25:25.806Z,16.80
2017-09-27T13:27:54.099Z,14.77
2017-09-27T13:30:23.276Z,15.20
2017-09-27T13:32:51.562Z,14.63
2017-09-27T13:35:20.610Z,13.70
2017-09-27T13:37:48.935Z,13.77
2017-09-27T13:40:18.028Z,14.90
2017-09-27T13:42:47.129Z,15.10
2017-09-27T13:45:17.203Z,12.97
2017-09-27T13:47:46.469Z,13.57
2017-09-27T13:50:14.813Z,13.60
2017-09-27T13:52:43.171Z,15.30
2017-09-27T13:55:11.729Z,13.00
2017-09-27T13:57:39.999Z,16.07
2017-09-27T14:00:08.305Z,17.00
2017-09-27T14:02:37.369Z,15.67
2017-09-27T14:05:05.627Z,14.67
2017-09-27T14:07:34.712Z,15.00
2017-09-27T14:10:03.017Z,13.77
2017-09-27T14:12:32.881Z,13.37
2017-09-27T14:15:01.334Z,13.77
2017-09-27T14:17:29.650Z,11.70
2017-09-27T14:19:58.008Z,12.33
2017-09-27T14:22:26.411Z,11.33
2017-09-27T14:24:54.673Z,11.53
2017-09-27T14:27:22.995Z,12.10
2017-09-27T14:29:52.072Z,14.20
2017-09-27T14:32:20.340Z,12.60
2017-09-27T14:34:48.645Z,15.97
2017-09-27T14:37:17.716Z,15.30
2017-09-27T14:39:45.967Z,17.13
2017-09-27T14:42:14.279Z,19.20
2017-09-27T14:44:43.369Z,19.10
2017-09-27T14:47:11.747Z,22.30
2017-09-27T14:49:39.966Z,22.80
2017-09-27T14:52:08.241Z,26.10
2017-09-27T14:54:36.487Z,25.53
2017-09-27T14:57:04.822Z,25.77
2017-09-27T14:59:33.122Z,26.63
2017-09-27T15:02:01.349Z,28.87
2017-09-27T15:04:29.656Z,30.70
2017-09-27T15:06:57.893Z,29.87
2017-09-27T15:09:26.178Z,26.73
2017-09-27T15:11:54.455Z,24.87
2017-09-27T15:14:22.754Z,25.43
2017-09-27T15:16:51.051Z,27.60
2017-09-27T15:19:19.326Z,27.63
2017-09-27T15:21:47.614Z,31.30
2017-09-27T15:24:15.876Z,32.40
2017-09-27T15:26:44.185Z,33.40
2017-09-27T15:29:13.224Z,34.60
2017-09-27T15:31:41.524Z,33.50
2017-09-27T15:34:09.805Z,29.13
2017-09-27T15:36:38.322Z,32.10
2017-09-27T15:39:06.630Z,31.07
2017-09-27T15:41:35.654Z,29.77
2017-09-27T15:44:03.960Z,35.23
2017-09-27T15:46:32.266Z,33.07
2017-09-27T15:49:00.489Z,34.33
2017-09-27T15:51:28.764Z,32.27
2017-09-27T15:53:57.038Z,35.80
2017-09-27T15:56:25.315Z,39.63
2017-09-27T15:58:53.556Z,33.27
2017-09-27T16:01:22.599Z,30.30
2017-09-27T16:03:51.015Z,34.87
2017-09-27T16:06:19.242Z,34.30
2017-09-27T16:08:47.536Z,35.60
2017-09-27T16:11:15.810Z,32.90
2017-09-27T16:13:44.103Z,32.60
2017-09-27T16:16:12.422Z,32.77
2017-09-27T16:18:40.914Z,31.00
2017-09-27T16:21:09.949Z,32.20
2017-09-27T16:23:38.196Z,27.83
2017-09-27T16:26:06.528Z,31.63
2017-09-27T16:28:34.762Z,33.83
2017-09-27T16:31:03.054Z,29.70
2017-09-27T16:33:31.309Z,30.37
2017-09-27T16:35:59.696Z,29.03
2017-09-27T16:38:27.972Z,30.17
2017-09-27T16:40:56.270Z,32.90
2017-09-27T16:43:24.627Z,31.80
2017-09-27T16:45:52.960Z,30.40
2017-09-27T16:48:21.281Z,31.13
2017-09-27T16:50:50.293Z,32.83
2017-09-27T16:53:18.679Z,30.70
2017-09-27T16:55:46.927Z,29.50
2017-09-27T16:58:15.224Z,31.77
2017-09-27T17:00:43.504Z,32.73
2017-09-27T17:03:11.880Z,32.10
2017-09-27T17:05:40.155Z,32.10
2017-09-27T17:08:08.437Z,30.87
2017-09-27T17:10:36.709Z,33.10
2017-09-27T17:13:05.005Z,35.73
2017-09-27T17:15:33.504Z,35.70
2017-09-27T17:18:03.319Z,32.27
2017-09-27T17:20:31.636Z,44.60
2017-09-27T17:23:00.000Z,38.03
2017-09-27T17:25:29.343Z,46.83
2017-09-27T17:27:57.605Z,33.97
2017-09-27T17:30:25.955Z,31.53
2017-09-27T17:32:55.071Z,31.30
2017-09-27T17:35:24.189Z,31.23
2017-09-27T17:37:52.668Z,35.87
2017-09-27T17:40:20.917Z,35.40
2017-09-27T17:42:50.031Z,36.00
2017-09-27T17:45:18.420Z,39.43
2017-09-27T17:47:46.732Z,40.70
2017-09-27T17:50:15.055Z,37.57
2017-09-27T17:52:44.643Z,33.73
2017-09-27T17:55:12.963Z,33.80
2017-09-27T17:57:41.238Z,29.23
2017-09-27T18:00:09.570Z,30.30
2017-09-27T18:02:38.654Z,29.90
2017-09-27T18:05:12.750Z,27.70
2017-09-27T18:07:47.140Z,30.63
2017-09-27T18:10:21.836Z,30.77
2017-09-27T18:12:56.655Z,29.10
2017-09-27T18:18:33.828Z,27.87
2017-09-27T18:21:02.103Z,24.80
2017-09-27T18:23:30.408Z,23.53
2017-09-27T18:25:58.672Z,21.37
2017-09-27T18:28:26.951Z,19.80
2017-09-27T18:30:55.264Z,20.03
2017-09-27T18:33:24.341Z,18.93
2017-09-27T18:35:52.623Z,17.40
2017-09-27T18:38:20.964Z,17.50
2017-09-27T18:40:49.260Z,17.47
2017-09-27T18:43:17.565Z,17.60
2017-09-27T18:45:45.917Z,19.20
2017-09-27T18:48:14.179Z,17.00
2017-09-27T18:50:42.438Z,43.47
2017-09-27T18:53:10.774Z,18.43
2017-09-27T18:55:39.118Z,20.70
2017-09-27T18:58:07.390Z,20.90
2017-09-27T19:00:35.667Z,22.60
2017-09-27T19:03:04.004Z,24.83
2017-09-27T19:05:32.274Z,23.87
2017-09-27T19:08:01.837Z,23.07
2017-09-27T19:10:30.309Z,22.37
2017-09-27T19:12:58.573Z,22.07
2017-09-27T19:15:26.836Z,21.40
2017-09-27T19:17:55.903Z,21.73
2017-09-27T19:20:24.177Z,23.40
2017-09-27T19:22:52.880Z,22.03
2017-09-27T19:25:21.151Z,20.83
2017-09-27T19:27:50.222Z,20.50
2017-09-27T19:30:18.574Z,20.80
2017-09-27T19:32:46.853Z,20.60
2017-09-27T19:35:15.178Z,21.60
2017-09-27T19:37:43.462Z,21.63
2017-09-27T19:40:12.515Z,21.67
2017-09-27T19:42:40.818Z,21.73
2017-09-27T19:45:10.096Z,22.77
2017-09-27T19:47:38.380Z,21.97
2017-09-27T19:50:06.679Z,22.30
2017-09-27T19:52:34.974Z,23.50
2017-09-27T19:55:04.035Z,20.30
2017-09-27T19:57:32.327Z,22.50
2017-09-27T20:00:00.631Z,23.97
2017-09-27T20:02:29.698Z,24.50
2017-09-27T20:04:58.022Z,26.70
2017-09-27T20:07:27.210Z,26.73
2017-09-27T20:09:55.634Z,28.30
2017-09-27T20:12:23.951Z,22.80
2017-09-27T20:14:52.998Z,23.07
2017-09-27T20:17:21.290Z,23.10
2017-09-27T20:19:49.573Z,22.53
2017-09-27T20:22:17.975Z,25.07
2017-09-27T20:24:46.275Z,25.83
2017-09-27T20:27:14.519Z,23.83
2017-09-27T20:29:42.825Z,26.33
2017-09-27T20:32:11.109Z,26.90
2017-09-27T20:34:39.730Z,25.00
2017-09-27T20:37:08.028Z,24.00
2017-09-27T20:39:37.474Z,25.97
2017-09-27T20:42:06.528Z,27.47
2017-09-27T20:44:34.808Z,27.23
2017-09-27T20:47:03.291Z,26.20
2017-09-27T20:49:31.569Z,27.77
2017-09-27T20:52:00.281Z,26.47
2017-09-27T20:54:28.967Z,27.77
2017-09-27T20:56:57.323Z,27.97
2017-09-27T20:59:25.610Z,22.63
2017-09-27T21:01:53.958Z,28.30
2017-09-27T21:04:22.587Z,28.70
2017-09-27T21:06:50.835Z,28.70
2017-09-27T21:09:19.114Z,28.67
2017-09-27T21:11:47.452Z,27.60
2017-09-27T21:14:16.796Z,32.30
2017-09-27T21:16:45.066Z,31.30
2017-09-27T21:19:13.352Z,28.20
2017-09-27T21:21:41.606Z,29.67
2017-09-27T21:24:09.915Z,28.93
2017-09-27T21:26:38.254Z,30.03
2017-09-27T21:29:06.521Z,27.93
2017-09-27T21:31:34.834Z,28.80
2017-09-27T21:34:03.118Z,30.80
2017-09-27T21:36:31.393Z,28.80
2017-09-27T21:38:59.704Z,32.40
2017-09-27T21:41:27.931Z,29.73
2017-09-27T21:43:56.220Z,30.70
2017-09-27T21:46:24.477Z,32.20
2017-09-27T21:48:52.719Z,29.67
2017-09-27T21:51:21.763Z,22.97
2017-09-27T21:53:50.008Z,25.73
2017-09-27T21:56:18.271Z,28.53
2017-09-27T21:58:46.548Z,28.40
2017-09-27T22:01:15.632Z,26.53
2017-09-27T22:03:43.903Z,30.47
2017-09-27T22:06:12.184Z,31.60
2017-09-27T22:08:40.499Z,30.33
2017-09-27T22:11:08.764Z,30.40
2017-09-27T22:13:37.442Z,28.00
2017-09-27T22:16:05.807Z,29.63
2017-09-27T22:18:34.058Z,30.50
2017-09-27T22:21:02.351Z,31.57
2017-09-27T22:23:30.632Z,31.73
2017-09-27T22:25:59.764Z,29.07
2017-09-27T22:28:28.856Z,33.93
2017-09-27T22:30:57.174Z,35.00
2017-09-27T22:33:25.433Z,35.90
2017-09-27T22:35:53.730Z,34.13
2017-09-27T22:38:22.040Z,35.17
2017-09-27T22:40:51.077Z,35.80
2017-09-27T22:43:19.413Z,35.17
2017-09-27T22:45:47.674Z,36.53
2017-09-27T22:48:15.939Z,38.27
2017-09-27T22:50:44.575Z,36.97
2017-09-27T22:53:13.654Z,38.53
2017-09-27T22:55:41.924Z,39.37
2017-09-27T22:58:10.185Z,37.03
2017-09-27T23:00:38.481Z,35.70
2017-09-27T23:03:07.584Z,37.03
2017-09-27T23:05:36.626Z,37.60
2017-09-27T23:08:04.942Z,35.87
2017-09-27T23:10:33.212Z,35.77
2017-09-27T23:13:01.495Z,34.40
2017-09-27T23:15:29.748Z,35.20
2017-09-27T23:17:58.212Z,35.83
2017-09-27T23:20:26.484Z,33.97
2017-09-27T23:22:54.756Z,30.50
2017-09-27T23:25:23.100Z,30.90
2017-09-27T23:27:51.362Z,34.10
2017-09-27T23:30:19.635Z,33.53
2017-09-27T23:32:47.921Z,34.80
2017-09-27T23:35:16.203Z,33.70
2017-09-27T23:37:44.460Z,30.90
2017-09-27T23:40:12.721Z,30.63
2017-09-27T23:42:41.069Z,30.50
2017-09-27T23:45:09.377Z,31.77
2017-09-27T23:47:37.645Z,30.30
2017-09-27T23:50:05.926Z,31.87
2017-09-27T23:52:34.174Z,35.50
2017-09-27T23:55:02.462Z,33.97
2017-09-27T23:57:30.727Z,33.23
2017-09-27T23:59:59.799Z,34.70
